Maplewood, Minnesota
Current Conditions -  °F | °C
As of 10:53 AM on Friday 28 Nov 2014 (Local Time) from KSTP Reporting Station
Overcast Overcast  
Wind Chill:   Ceiling: 2400
Heat Index: 19°   Visibility: 10mi
Dew Point: 11°   Wind: 12mph
Humidity: 71%   Direction: 150°SSE
Pressure: 30"   Gusts: NA
Location:  45.01°N, 93.02°W
Report Text: KSTP 281653Z 15010KT 10SM OVC024 M07/M12 A3000 RMK AO2 SLP171 T10721117
Loading
Personal Weather Stations






























Interactive Weather Map New forecast layout! Learn more

10-Day Weather Forecast

Advertisements
Track Severe Weather on mobile